createdAt,value
2022-10-03T00:02:28.807Z,9.90
2022-10-03T00:05:10.112Z,9.90
2022-10-03T00:08:03.155Z,9.90
2022-10-03T00:10:39.840Z,9.90
2022-10-03T00:13:21.667Z,10.00
2022-10-03T00:15:57.015Z,10.00
2022-10-03T00:18:36.272Z,10.00
2022-10-03T00:21:34.859Z,10.10
2022-10-03T00:24:14.595Z,10.10
2022-10-03T00:26:50.743Z,10.10
2022-10-03T00:29:36.883Z,10.10
2022-10-03T00:32:16.668Z,10.10
2022-10-03T00:34:59.841Z,10.10
2022-10-03T00:37:34.635Z,10.20
2022-10-03T00:40:36.304Z,10.10
2022-10-03T00:43:33.969Z,10.20
2022-10-03T00:46:32.983Z,10.20
2022-10-03T00:49:30.854Z,10.20
2022-10-03T00:52:19.211Z,10.30
2022-10-03T00:55:00.810Z,10.20
2022-10-03T00:57:50.292Z,10.20
2022-10-03T01:00:24.871Z,10.20
2022-10-03T01:03:23.815Z,10.30
2022-10-03T01:06:08.763Z,10.30
2022-10-03T01:08:55.074Z,10.30
2022-10-03T01:11:33.578Z,10.30
2022-10-03T01:14:17.047Z,10.30
2022-10-03T01:17:03.602Z,10.30
2022-10-03T01:20:09.702Z,10.30
2022-10-03T01:23:03.574Z,10.30
2022-10-03T01:25:40.511Z,10.20
2022-10-03T01:28:56.654Z,10.20
2022-10-03T01:31:30.015Z,10.20
2022-10-03T01:34:07.207Z,10.20
2022-10-03T01:36:40.914Z,10.30
2022-10-03T01:39:16.150Z,10.30
2022-10-03T01:41:52.314Z,10.30
2022-10-03T01:44:27.462Z,10.40
2022-10-03T01:47:08.597Z,10.40
2022-10-03T01:49:44.091Z,10.40
2022-10-03T01:52:16.599Z,10.40
2022-10-03T01:54:50.384Z,10.40
2022-10-03T01:57:26.862Z,10.50
2022-10-03T01:59:59.758Z,10.50
2022-10-03T02:02:35.202Z,10.60
2022-10-03T02:05:09.674Z,10.60
2022-10-03T02:07:46.826Z,10.60
2022-10-03T02:10:25.710Z,10.60
2022-10-03T02:13:02.873Z,10.60
2022-10-03T02:15:42.492Z,10.60
2022-10-03T02:18:17.089Z,10.60
2022-10-03T02:20:49.549Z,10.60
2022-10-03T02:23:27.293Z,10.70
2022-10-03T02:26:10.562Z,10.70
2022-10-03T02:29:00.310Z,10.70
2022-10-03T02:32:01.561Z,10.70
2022-10-03T02:35:22.434Z,10.70
2022-10-03T02:38:04.425Z,10.70
2022-10-03T02:41:13.720Z,10.80
2022-10-03T02:44:18.329Z,10.80
2022-10-03T02:47:25.513Z,10.80
2022-10-03T02:50:19.893Z,10.80
2022-10-03T02:53:17.912Z,10.80
2022-10-03T02:56:17.161Z,10.70
2022-10-03T02:59:19.049Z,10.80
2022-10-03T03:02:06.616Z,10.80
2022-10-03T03:05:13.761Z,10.80
2022-10-03T03:08:12.129Z,10.90
2022-10-03T03:11:14.406Z,10.90
2022-10-03T03:14:23.696Z,10.90
2022-10-03T03:17:01.985Z,10.90
2022-10-03T03:19:45.547Z,10.90
2022-10-03T03:22:28.330Z,10.90
2022-10-03T03:25:22.943Z,10.90
2022-10-03T03:28:04.335Z,10.90
2022-10-03T03:30:41.090Z,10.90
2022-10-03T03:33:21.925Z,10.90
2022-10-03T03:36:02.173Z,10.90
2022-10-03T03:38:35.332Z,11.00
2022-10-03T03:41:31.175Z,11.00
2022-10-03T03:44:26.618Z,11.00
2022-10-03T03:47:14.671Z,11.00
2022-10-03T03:49:59.256Z,11.00
2022-10-03T03:52:45.245Z,11.00
2022-10-03T03:55:41.070Z,11.00
2022-10-03T03:58:30.130Z,11.00
2022-10-03T04:01:12.630Z,11.00
2022-10-03T04:03:53.914Z,11.00
2022-10-03T04:06:36.894Z,11.10
2022-10-03T04:09:21.487Z,11.10
2022-10-03T04:12:00.509Z,11.10
2022-10-03T04:15:07.757Z,11.10
2022-10-03T04:18:08.579Z,11.10
2022-10-03T04:20:57.157Z,11.10
2022-10-03T04:23:39.921Z,11.10
2022-10-03T04:26:20.061Z,11.10
2022-10-03T04:29:17.113Z,11.10
2022-10-03T04:31:55.403Z,11.10
2022-10-03T04:34:35.773Z,11.10
2022-10-03T04:37:33.933Z,11.20
2022-10-03T04:40:17.785Z,11.20
2022-10-03T04:42:58.397Z,11.20
2022-10-03T04:45:58.489Z,11.20
2022-10-03T04:48:34.333Z,11.20
2022-10-03T04:51:13.028Z,11.20
2022-10-03T04:53:51.253Z,11.20
2022-10-03T04:56:41.692Z,11.20
2022-10-03T04:59:31.831Z,11.20
2022-10-03T05:02:04.228Z,11.20
2022-10-03T05:04:41.008Z,11.10
2022-10-03T05:07:15.720Z,11.10
2022-10-03T05:09:53.680Z,11.10
2022-10-03T05:12:32.977Z,11.10
2022-10-03T05:15:16.714Z,11.10
2022-10-03T05:17:52.960Z,11.10
2022-10-03T05:20:35.480Z,11.10
2022-10-03T05:23:15.513Z,11.10
2022-10-03T05:26:23.146Z,11.10
2022-10-03T05:28:55.291Z,11.10
2022-10-03T05:31:33.592Z,11.10
2022-10-03T05:34:11.871Z,11.10
2022-10-03T05:37:04.259Z,11.10
2022-10-03T05:39:43.392Z,11.10
2022-10-03T05:42:36.756Z,11.10
2022-10-03T05:45:11.544Z,11.00
2022-10-03T05:47:50.923Z,11.00
2022-10-03T05:50:43.299Z,11.00
2022-10-03T05:53:35.299Z,11.00
2022-10-03T05:56:10.303Z,11.00
2022-10-03T05:59:18.039Z,11.00
2022-10-03T06:02:37.091Z,11.00
2022-10-03T06:05:24.573Z,11.00
2022-10-03T06:08:19.944Z,11.00
2022-10-03T06:11:01.271Z,11.00
2022-10-03T06:13:45.544Z,11.10
2022-10-03T06:16:30.279Z,11.10
2022-10-03T06:19:12.667Z,11.10
2022-10-03T06:22:15.396Z,11.10
2022-10-03T06:25:25.455Z,11.20
2022-10-03T06:28:24.300Z,11.20
2022-10-03T06:31:37.941Z,11.30
2022-10-03T06:34:41.771Z,11.30
2022-10-03T06:37:47.321Z,11.30
2022-10-03T06:40:48.926Z,11.30
2022-10-03T06:43:48.843Z,11.30
2022-10-03T06:46:48.703Z,11.30
2022-10-03T06:49:36.589Z,11.30
2022-10-03T06:52:26.115Z,11.30
2022-10-03T06:55:16.759Z,11.30
2022-10-03T06:58:13.080Z,11.40
2022-10-03T07:00:56.249Z,11.40
2022-10-03T07:03:51.275Z,11.40
2022-10-03T07:06:43.009Z,11.40
2022-10-03T07:09:48.302Z,11.50
2022-10-03T07:12:54.025Z,11.50
2022-10-03T07:16:14.297Z,11.60
2022-10-03T07:19:15.973Z,11.60
2022-10-03T07:22:19.182Z,11.60
2022-10-03T07:25:23.199Z,11.60
2022-10-03T07:28:29.722Z,11.70
2022-10-03T07:31:08.141Z,11.70
2022-10-03T07:34:11.391Z,11.80
2022-10-03T07:37:23.373Z,11.90
2022-10-03T07:40:11.653Z,12.00
2022-10-03T07:43:19.719Z,12.00
2022-10-03T07:46:14.321Z,12.00
2022-10-03T07:49:09.915Z,12.10
2022-10-03T07:51:50.731Z,12.10
2022-10-03T07:54:58.961Z,12.10
2022-10-03T07:57:54.591Z,12.20
2022-10-03T08:00:24.392Z,12.30
2022-10-03T08:03:43.570Z,12.30
2022-10-03T08:06:24.572Z,12.40
2022-10-03T08:09:23.244Z,12.40
2022-10-03T08:12:21.128Z,12.40
2022-10-03T08:15:04.893Z,12.50
2022-10-03T08:18:01.759Z,12.50
2022-10-03T08:20:49.324Z,12.50
2022-10-03T08:24:06.779Z,12.60
2022-10-03T08:27:07.556Z,12.60
2022-10-03T08:30:18.501Z,12.70
2022-10-03T08:33:13.737Z,12.70
2022-10-03T08:36:19.230Z,12.80
2022-10-03T08:39:19.340Z,12.90
2022-10-03T08:42:17.983Z,13.00
2022-10-03T08:45:00.413Z,13.10
2022-10-03T08:48:00.397Z,13.10
2022-10-03T08:50:57.542Z,13.20
2022-10-03T08:53:50.286Z,13.30
2022-10-03T08:56:25.448Z,13.30
2022-10-03T08:59:16.355Z,13.40
2022-10-03T09:02:16.912Z,13.40
2022-10-03T09:05:28.554Z,13.40
2022-10-03T09:08:31.975Z,13.40
2022-10-03T09:11:30.326Z,13.40
2022-10-03T09:14:38.976Z,13.50
2022-10-03T09:17:22.809Z,13.50
2022-10-03T09:20:17.582Z,13.60
2022-10-03T09:23:24.775Z,13.60
2022-10-03T09:26:18.902Z,13.60
2022-10-03T09:29:32.517Z,13.50
2022-10-03T09:32:43.689Z,13.60
2022-10-03T09:35:57.238Z,13.80
2022-10-03T09:39:01.321Z,13.90
2022-10-03T09:42:11.881Z,13.90
2022-10-03T09:44:53.093Z,13.90
2022-10-03T09:47:42.767Z,13.80
2022-10-03T09:50:51.995Z,13.80
2022-10-03T09:53:46.460Z,13.70
2022-10-03T09:56:55.133Z,13.80
2022-10-03T09:59:51.770Z,13.80
2022-10-03T10:03:02.440Z,13.80
2022-10-03T10:05:55.291Z,13.90
2022-10-03T10:08:46.141Z,14.00
2022-10-03T10:11:23.753Z,14.00
2022-10-03T10:14:25.189Z,14.10
2022-10-03T10:17:27.839Z,14.00
2022-10-03T10:20:36.079Z,14.00
2022-10-03T10:23:32.908Z,13.90
2022-10-03T10:26:35.905Z,13.90
2022-10-03T10:29:30.537Z,13.90
2022-10-03T10:32:54.049Z,13.90
2022-10-03T10:35:51.852Z,14.00
2022-10-03T10:38:39.797Z,14.00
2022-10-03T10:41:43.229Z,14.10
2022-10-03T10:44:58.734Z,14.20
2022-10-03T10:47:56.716Z,14.20
2022-10-03T10:51:08.887Z,14.30
2022-10-03T10:54:07.645Z,14.30
2022-10-03T10:57:04.995Z,14.60
2022-10-03T11:00:18.290Z,14.80
2022-10-03T11:03:33.802Z,15.00
2022-10-03T11:06:41.976Z,14.90
2022-10-03T11:09:47.479Z,14.90
2022-10-03T11:13:00.821Z,14.90
2022-10-03T11:15:55.595Z,15.00
2022-10-03T11:19:05.812Z,15.00
2022-10-03T11:22:10.747Z,15.10
2022-10-03T11:25:20.760Z,15.30
2022-10-03T11:28:27.847Z,16.00
2022-10-03T11:31:33.033Z,16.80
2022-10-03T11:34:57.613Z,17.60
2022-10-03T11:37:43.018Z,18.10
2022-10-03T11:40:28.232Z,18.50
2022-10-03T11:43:13.418Z,18.80
2022-10-03T11:45:47.968Z,19.20
2022-10-03T11:48:32.097Z,19.40
2022-10-03T11:51:06.102Z,19.50
2022-10-03T11:53:49.859Z,19.60
2022-10-03T11:56:33.950Z,19.80
2022-10-03T11:59:35.973Z,20.10
2022-10-03T12:02:19.904Z,20.30
2022-10-03T12:04:59.891Z,20.40
2022-10-03T12:08:04.733Z,20.30
2022-10-03T12:10:51.741Z,19.80
2022-10-03T12:13:29.978Z,19.00
2022-10-03T12:15:59.218Z,17.90
2022-10-03T12:18:34.319Z,17.00
2022-10-03T12:21:10.675Z,16.30
2022-10-03T12:23:57.878Z,15.70
2022-10-03T12:26:38.526Z,15.30
2022-10-03T12:29:12.822Z,14.90
2022-10-03T12:31:50.385Z,14.70
2022-10-03T12:34:33.277Z,14.60
2022-10-03T12:37:19.316Z,14.50
2022-10-03T12:40:00.881Z,14.40
2022-10-03T12:42:33.169Z,14.30
2022-10-03T12:45:07.493Z,14.20
2022-10-03T12:47:55.775Z,14.30
2022-10-03T12:50:38.423Z,14.40
2022-10-03T12:53:26.279Z,14.60
2022-10-03T12:56:07.752Z,14.80
2022-10-03T12:58:47.391Z,14.90
2022-10-03T13:01:28.532Z,15.20
2022-10-03T13:04:00.252Z,15.70
2022-10-03T13:07:02.797Z,16.20
2022-10-03T13:10:02.582Z,16.70
2022-10-03T13:12:46.757Z,16.90
2022-10-03T13:15:45.347Z,16.90
2022-10-03T13:18:43.869Z,16.70
2022-10-03T13:21:43.909Z,16.40
2022-10-03T13:24:10.211Z,16.10
2022-10-03T13:26:47.715Z,15.90
2022-10-03T13:29:26.995Z,15.70
2022-10-03T13:32:08.310Z,15.60
2022-10-03T13:34:54.571Z,15.50
2022-10-03T13:37:31.654Z,15.40
2022-10-03T13:40:06.194Z,15.40
2022-10-03T13:42:40.968Z,15.30
2022-10-03T13:45:16.114Z,15.30
2022-10-03T13:47:47.980Z,15.40
2022-10-03T13:50:21.212Z,15.50
2022-10-03T13:52:54.705Z,15.60
2022-10-03T13:55:39.464Z,15.60
2022-10-03T13:58:23.285Z,15.60
2022-10-03T14:01:27.754Z,15.50
2022-10-03T14:04:32.193Z,15.50
2022-10-03T14:07:08.866Z,15.60
2022-10-03T14:09:49.550Z,15.90
2022-10-03T14:12:43.898Z,16.40
2022-10-03T14:15:42.476Z,16.90
2022-10-03T14:18:33.240Z,17.20
2022-10-03T14:21:33.931Z,17.30
2022-10-03T14:24:13.346Z,17.10
2022-10-03T14:26:48.973Z,16.80
2022-10-03T14:29:24.535Z,16.60
2022-10-03T14:31:59.177Z,16.40
2022-10-03T14:34:41.143Z,16.30
2022-10-03T14:37:20.961Z,16.10
2022-10-03T14:40:04.083Z,16.00
2022-10-03T14:42:50.205Z,15.80
2022-10-03T14:45:23.421Z,15.70
2022-10-03T14:47:59.966Z,15.60
2022-10-03T14:50:31.355Z,15.50
2022-10-03T14:53:03.446Z,15.30
2022-10-03T14:55:39.309Z,15.20
2022-10-03T14:58:16.092Z,15.00
2022-10-03T15:00:46.819Z,14.90
2022-10-03T15:03:28.945Z,14.70
2022-10-03T15:06:02.762Z,14.60
2022-10-03T15:08:40.229Z,14.60
2022-10-03T15:11:12.908Z,14.50
2022-10-03T15:13:45.014Z,14.40
2022-10-03T15:16:18.480Z,14.30
2022-10-03T15:18:53.710Z,14.30
2022-10-03T15:21:22.795Z,14.30
2022-10-03T15:23:56.772Z,14.30
2022-10-03T15:26:28.756Z,14.30
2022-10-03T15:29:00.987Z,14.30
2022-10-03T15:31:35.410Z,14.30
2022-10-03T15:34:06.130Z,14.30
2022-10-03T15:36:38.539Z,14.30
2022-10-03T15:39:09.264Z,14.30
2022-10-03T15:41:54.279Z,14.30
2022-10-03T15:44:29.019Z,14.40
2022-10-03T15:47:01.669Z,14.30
2022-10-03T15:49:33.910Z,14.30
2022-10-03T15:52:12.110Z,14.30
2022-10-03T15:54:40.998Z,14.30
2022-10-03T15:57:20.172Z,14.30
2022-10-03T15:59:53.251Z,14.30
2022-10-03T16:02:27.319Z,14.30
2022-10-03T16:04:58.131Z,14.20
2022-10-03T16:07:36.911Z,14.20
2022-10-03T16:10:20.883Z,14.20
2022-10-03T16:13:03.407Z,14.10
2022-10-03T16:15:46.776Z,14.10
2022-10-03T16:18:45.038Z,14.00
2022-10-03T16:21:17.586Z,13.90
2022-10-03T16:23:47.224Z,13.80
2022-10-03T16:26:22.524Z,13.80
2022-10-03T16:28:57.109Z,13.70
2022-10-03T16:31:28.741Z,13.60
2022-10-03T16:34:00.984Z,13.50
2022-10-03T16:36:29.331Z,13.50
2022-10-03T16:39:00.395Z,13.40
2022-10-03T16:41:31.859Z,13.30
2022-10-03T16:44:03.467Z,13.30
2022-10-03T16:46:34.803Z,13.30
2022-10-03T16:49:28.097Z,13.30
2022-10-03T16:52:01.556Z,13.30
2022-10-03T16:54:32.246Z,13.20
2022-10-03T16:57:04.771Z,13.20
2022-10-03T16:59:35.586Z,13.20
2022-10-03T17:02:07.117Z,13.10
2022-10-03T17:04:39.159Z,13.10
2022-10-03T17:07:14.431Z,13.10
2022-10-03T17:09:47.112Z,13.00
2022-10-03T17:12:20.127Z,13.00
2022-10-03T17:14:50.003Z,12.90
2022-10-03T17:17:28.578Z,12.80
2022-10-03T17:20:00.403Z,12.80
2022-10-03T17:22:34.367Z,12.70
2022-10-03T17:25:06.638Z,12.70
2022-10-03T17:27:40.128Z,12.60
2022-10-03T17:30:20.934Z,12.60
2022-10-03T17:32:57.858Z,12.60
2022-10-03T17:35:32.488Z,12.50
2022-10-03T17:41:22.182Z,12.40
2022-10-03T17:44:01.720Z,12.40
2022-10-03T17:46:40.813Z,12.40
2022-10-03T17:49:22.082Z,12.30
2022-10-03T17:51:52.538Z,12.30
2022-10-03T17:54:25.602Z,12.30
2022-10-03T17:56:58.116Z,12.20
2022-10-03T17:59:31.355Z,12.20
2022-10-03T18:02:14.320Z,12.20
2022-10-03T18:04:46.101Z,12.10
2022-10-03T18:07:19.538Z,12.10
2022-10-03T18:09:49.461Z,12.10
2022-10-03T18:12:28.849Z,12.00
2022-10-03T18:15:35.494Z,12.00
2022-10-03T18:18:47.697Z,12.00
2022-10-03T18:21:24.903Z,12.00
2022-10-03T18:24:19.993Z,12.00
2022-10-03T18:26:55.371Z,12.00
2022-10-03T18:29:30.089Z,12.00
2022-10-03T18:32:00.814Z,12.00
2022-10-03T18:34:36.486Z,12.00
2022-10-03T18:37:33.634Z,12.00
2022-10-03T18:40:04.277Z,12.00
2022-10-03T18:42:32.552Z,11.90
2022-10-03T18:45:02.082Z,12.00
2022-10-03T18:47:35.937Z,12.00
2022-10-03T18:50:13.939Z,12.00
2022-10-03T18:52:50.761Z,12.00
2022-10-03T18:55:24.804Z,12.00
2022-10-03T18:58:01.356Z,12.10
2022-10-03T19:00:31.415Z,12.10
2022-10-03T19:03:02.398Z,12.10
2022-10-03T19:05:35.178Z,12.10
2022-10-03T19:08:11.492Z,12.10
2022-10-03T19:10:45.476Z,12.20
2022-10-03T19:13:26.633Z,12.20
2022-10-03T19:16:18.018Z,12.20
2022-10-03T19:18:52.293Z,12.20
2022-10-03T19:21:22.694Z,12.20
2022-10-03T19:23:54.308Z,12.20
2022-10-03T19:26:28.880Z,12.20
2022-10-03T19:29:05.596Z,12.10
2022-10-03T19:31:40.410Z,12.10
2022-10-03T19:34:17.072Z,12.10
2022-10-03T19:36:50.227Z,12.10
2022-10-03T19:39:19.418Z,12.10
2022-10-03T19:41:53.347Z,12.10
2022-10-03T19:44:24.483Z,12.10
2022-10-03T19:47:05.319Z,12.10
2022-10-03T19:49:56.475Z,12.10
2022-10-03T19:52:30.498Z,12.10
2022-10-03T19:55:04.421Z,12.20
2022-10-03T19:57:41.805Z,12.20
2022-10-03T20:00:26.230Z,12.20
2022-10-03T20:02:57.149Z,12.20
2022-10-03T20:05:30.414Z,12.20
2022-10-03T20:08:04.112Z,12.10
2022-10-03T20:10:46.602Z,12.10
2022-10-03T20:13:15.359Z,12.10
2022-10-03T20:15:45.663Z,12.00
2022-10-03T20:18:21.757Z,12.00
2022-10-03T20:20:54.952Z,11.90
2022-10-03T20:23:27.005Z,11.90
2022-10-03T20:26:01.232Z,12.00
2022-10-03T20:28:47.360Z,12.00
2022-10-03T20:31:22.835Z,12.00
2022-10-03T20:33:52.991Z,12.00
2022-10-03T20:36:24.292Z,11.90
2022-10-03T20:39:05.487Z,11.90
2022-10-03T20:41:45.569Z,11.90
2022-10-03T20:44:19.600Z,11.80
2022-10-03T20:46:50.281Z,11.80
2022-10-03T20:49:29.533Z,11.80
2022-10-03T20:52:00.048Z,11.80
2022-10-03T20:54:36.436Z,11.70
2022-10-03T20:57:09.122Z,11.70
2022-10-03T20:59:45.126Z,11.70
2022-10-03T21:02:25.616Z,11.70
2022-10-03T21:04:57.625Z,11.70
2022-10-03T21:07:35.094Z,11.70
2022-10-03T21:10:15.632Z,11.70
2022-10-03T21:12:48.842Z,11.70
2022-10-03T21:15:29.858Z,11.70
2022-10-03T21:17:59.038Z,11.70
2022-10-03T21:20:35.463Z,11.70
2022-10-03T21:23:12.804Z,11.70
2022-10-03T21:25:44.636Z,11.70
2022-10-03T21:28:25.264Z,11.70
2022-10-03T21:31:10.882Z,11.70
2022-10-03T21:33:43.865Z,11.70
2022-10-03T21:36:18.421Z,11.70
2022-10-03T21:38:50.941Z,11.70
2022-10-03T21:41:36.431Z,11.60
2022-10-03T21:44:12.651Z,11.60
2022-10-03T21:46:47.739Z,11.60
2022-10-03T21:49:44.468Z,11.60
2022-10-03T21:52:35.618Z,11.60
2022-10-03T21:55:50.662Z,11.60
2022-10-03T21:58:35.776Z,11.60
2022-10-03T22:01:14.356Z,11.60
2022-10-03T22:03:49.176Z,11.60
2022-10-03T22:06:23.483Z,11.50
2022-10-03T22:08:51.736Z,11.50
2022-10-03T22:11:30.700Z,11.40
2022-10-03T22:14:08.548Z,11.40
2022-10-03T22:16:44.503Z,11.40
2022-10-03T22:19:21.732Z,11.40
2022-10-03T22:22:04.520Z,11.40
2022-10-03T22:24:51.574Z,11.40
2022-10-03T22:27:26.703Z,11.40
2022-10-03T22:30:04.683Z,11.40
2022-10-03T22:32:38.469Z,11.30
2022-10-03T22:35:21.314Z,11.30
2022-10-03T22:37:49.340Z,11.30
2022-10-03T22:40:17.811Z,11.30
2022-10-03T22:42:49.186Z,11.30
2022-10-03T22:45:19.385Z,11.30
2022-10-03T22:47:52.999Z,11.30
2022-10-03T22:50:25.027Z,11.30
2022-10-03T22:52:53.522Z,11.30
2022-10-03T22:55:25.222Z,11.30
2022-10-03T22:57:54.891Z,11.40
2022-10-03T23:00:26.396Z,11.40
2022-10-03T23:02:59.560Z,11.50
2022-10-03T23:05:44.546Z,11.50
2022-10-03T23:08:21.335Z,11.60
2022-10-03T23:10:52.884Z,11.60
2022-10-03T23:13:28.350Z,11.60
2022-10-03T23:16:06.218Z,11.60
2022-10-03T23:19:02.847Z,11.60
2022-10-03T23:21:31.139Z,11.60
2022-10-03T23:24:06.377Z,11.50
2022-10-03T23:26:54.350Z,11.50
2022-10-03T23:29:23.226Z,11.50
2022-10-03T23:31:58.853Z,11.50
2022-10-03T23:35:08.060Z,11.50
2022-10-03T23:37:42.191Z,11.60
2022-10-03T23:40:36.220Z,11.70
2022-10-03T23:43:31.319Z,11.70
2022-10-03T23:46:01.572Z,11.70
2022-10-03T23:48:40.698Z,11.80
2022-10-03T23:51:13.166Z,11.80
2022-10-03T23:53:44.619Z,11.80
2022-10-03T23:56:28.874Z,11.90
2022-10-03T23:58:59.087Z,11.90
